createdAt,value
2022-12-16T00:00:02.275Z,98987.13
2022-12-16T00:02:33.557Z,98987.13
2022-12-16T00:05:00.339Z,98980.09
2022-12-16T00:07:27.214Z,98980.41
2022-12-16T00:09:54.002Z,98986.16
2022-12-16T00:12:21.421Z,98971.81
2022-12-16T00:14:49.015Z,98965.09
2022-12-16T00:17:15.797Z,98961.56
2022-12-16T00:19:42.529Z,98954.84
2022-12-16T00:22:09.518Z,98955.81
2022-12-16T00:24:36.436Z,98951.16
2022-12-16T00:27:03.872Z,98940.97
2022-12-16T00:29:30.572Z,98937.59
2022-12-16T00:31:57.451Z,98929.44
2022-12-16T00:34:24.260Z,98928.94
2022-12-16T00:36:51.013Z,98936.31
2022-12-16T00:39:17.801Z,98938.66
2022-12-16T00:41:44.606Z,98921.94
2022-12-16T00:44:11.485Z,98926.09
2022-12-16T00:46:38.283Z,98923.50
2022-12-16T00:49:05.109Z,98925.75
2022-12-16T00:51:31.873Z,98915.22
2022-12-16T00:53:58.731Z,98905.97
2022-12-16T00:56:25.539Z,98895.75
2022-12-16T00:58:52.412Z,98881.66
2022-12-16T01:01:19.518Z,98878.81
2022-12-16T01:03:46.690Z,98877.84
2022-12-16T01:06:17.037Z,98872.09
2022-12-16T01:08:48.941Z,98856.78
2022-12-16T01:11:18.299Z,98846.72
2022-12-16T01:13:46.393Z,98840.50
2022-12-16T01:16:13.210Z,98840.81
2022-12-16T01:18:39.930Z,98850.41
2022-12-16T01:21:08.532Z,98856.31
2022-12-16T01:23:36.183Z,98837.81
2022-12-16T01:26:03.771Z,98844.97
2022-12-16T01:28:31.163Z,98833.47
2022-12-16T01:31:01.809Z,98830.94
2022-12-16T01:33:33.823Z,98814.19
2022-12-16T01:36:02.988Z,98811.13
2022-12-16T01:38:30.282Z,98798.97
2022-12-16T01:40:57.562Z,98803.13
2022-12-16T01:43:30.510Z,98799.59
2022-12-16T01:46:23.332Z,98793.25
2022-12-16T01:49:00.898Z,98778.19
2022-12-16T01:51:36.298Z,98780.75
2022-12-16T01:54:12.332Z,98773.75
2022-12-16T01:56:45.698Z,98770.53
2022-12-16T01:59:14.752Z,98763.84
2022-12-16T02:01:41.954Z,98750.59
2022-12-16T02:04:09.020Z,98752.66
2022-12-16T02:06:35.752Z,98749.13
2022-12-16T02:09:07.850Z,98746.72
2022-12-16T02:12:02.979Z,98754.09
2022-12-16T02:15:00.487Z,98746.28
2022-12-16T02:17:52.723Z,98745.63
2022-12-16T02:20:58.113Z,98753.00
2022-12-16T02:23:31.019Z,98751.22
2022-12-16T02:26:16.630Z,98745.16
2022-12-16T02:29:21.259Z,98742.78
2022-12-16T02:32:24.967Z,98742.13
2022-12-16T02:35:18.519Z,98738.91
2022-12-16T02:38:06.172Z,98743.41
2022-12-16T02:40:55.601Z,98742.91
2022-12-16T02:43:39.823Z,98737.44
2022-12-16T02:46:08.251Z,98748.72
2022-12-16T02:48:35.345Z,98756.63
2022-12-16T02:51:02.248Z,98751.03
2022-12-16T02:53:31.484Z,98749.75
2022-12-16T02:56:18.624Z,98755.84
2022-12-16T02:58:53.064Z,98740.19
2022-12-16T03:01:46.276Z,98736.19
2022-12-16T03:04:16.216Z,98727.56
2022-12-16T03:06:47.900Z,98741.13
2022-12-16T03:09:18.973Z,98735.72
2022-12-16T03:11:48.247Z,98731.38
2022-12-16T03:14:18.876Z,98727.44
2022-12-16T03:16:47.063Z,98727.72
2022-12-16T03:19:14.512Z,98728.97
2022-12-16T03:22:09.204Z,98721.31
2022-12-16T03:24:36.789Z,98707.78
2022-12-16T03:27:20.807Z,98696.72
2022-12-16T03:29:58.130Z,98688.25
2022-12-16T03:32:31.165Z,98666.66
2022-12-16T03:35:10.686Z,98644.53
2022-12-16T03:37:38.358Z,98640.00
2022-12-16T03:40:08.519Z,98640.47
2022-12-16T03:42:36.683Z,98641.75
2022-12-16T03:45:05.147Z,98638.91
2022-12-16T03:47:32.190Z,98653.78
2022-12-16T03:49:58.936Z,98639.50
2022-12-16T03:52:25.683Z,98629.00
2022-12-16T03:54:52.411Z,98635.69
2022-12-16T03:57:19.367Z,98639.53
2022-12-16T03:59:46.201Z,98644.78
2022-12-16T04:02:13.014Z,98659.09
2022-12-16T04:04:39.911Z,98656.09
2022-12-16T04:07:21.740Z,98650.91
2022-12-16T04:09:49.906Z,98641.63
2022-12-16T04:12:35.488Z,98634.75
2022-12-16T04:15:38.039Z,98630.06
2022-12-16T04:18:24.422Z,98623.41
2022-12-16T04:21:14.159Z,98626.63
2022-12-16T04:24:11.658Z,98625.31
2022-12-16T04:26:56.746Z,98616.63
2022-12-16T04:29:24.203Z,98603.22
2022-12-16T04:31:52.193Z,98590.47
2022-12-16T04:34:29.521Z,98586.03
2022-12-16T04:37:20.049Z,98580.69
2022-12-16T04:40:06.154Z,98572.34
2022-12-16T04:42:51.911Z,98583.03
2022-12-16T04:45:37.176Z,98581.25
2022-12-16T04:48:23.012Z,98572.28
2022-12-16T04:51:08.516Z,98568.09
2022-12-16T04:53:53.988Z,98560.81
2022-12-16T04:56:39.251Z,98554.91
2022-12-16T04:59:24.716Z,98567.31
2022-12-16T05:02:10.148Z,98556.13
2022-12-16T05:04:55.382Z,98549.72
2022-12-16T05:07:41.849Z,98558.75
2022-12-16T05:10:27.833Z,98563.97
2022-12-16T05:13:13.782Z,98568.34
2022-12-16T05:15:59.600Z,98582.81
2022-12-16T05:18:44.805Z,98569.34
2022-12-16T05:21:30.003Z,98550.22
2022-12-16T05:24:15.029Z,98556.44
2022-12-16T05:27:00.089Z,98563.84
2022-12-16T05:29:45.464Z,98565.44
2022-12-16T05:32:31.125Z,98566.72
2022-12-16T05:35:16.875Z,98572.63
2022-12-16T05:38:02.132Z,98573.06
2022-12-16T05:40:47.358Z,98595.34
2022-12-16T05:43:33.023Z,98593.72
2022-12-16T05:46:18.615Z,98598.72
2022-12-16T05:49:04.320Z,98601.41
2022-12-16T05:51:49.411Z,98607.81
2022-12-16T05:54:34.610Z,98618.03
2022-12-16T05:57:19.782Z,98614.13
2022-12-16T06:00:05.009Z,98607.06
2022-12-16T06:02:57.705Z,98612.19
2022-12-16T06:05:42.868Z,98607.41
2022-12-16T06:08:28.295Z,98600.91
2022-12-16T06:11:13.543Z,98601.44
2022-12-16T06:13:58.763Z,98605.75
2022-12-16T06:16:44.195Z,98604.34
2022-12-16T06:19:30.033Z,98609.97
2022-12-16T06:22:15.491Z,98607.81
2022-12-16T06:25:01.155Z,98607.81
2022-12-16T06:27:46.727Z,98629.47
2022-12-16T06:30:32.424Z,98628.88
2022-12-16T06:33:17.624Z,98629.16
2022-12-16T06:36:03.009Z,98627.84
2022-12-16T06:38:48.200Z,98633.44
2022-12-16T06:41:33.400Z,98625.28
2022-12-16T06:44:19.047Z,98632.72
2022-12-16T06:47:04.218Z,98635.31
2022-12-16T06:49:49.362Z,98638.81
2022-12-16T06:52:34.753Z,98636.31
2022-12-16T06:55:19.950Z,98633.69
2022-12-16T06:58:09.754Z,98629.63
2022-12-16T07:00:55.290Z,98631.81
2022-12-16T07:03:40.963Z,98631.91
2022-12-16T07:06:26.959Z,98646.47
2022-12-16T07:09:12.780Z,98657.06
2022-12-16T07:12:01.103Z,98666.97
2022-12-16T07:14:46.389Z,98670.94
2022-12-16T07:17:31.592Z,98672.53
2022-12-16T07:20:19.455Z,98681.81
2022-12-16T07:23:12.154Z,98694.88
2022-12-16T07:26:03.149Z,98705.13
2022-12-16T07:28:48.288Z,98706.00
2022-12-16T07:31:33.944Z,98712.44
2022-12-16T07:34:19.212Z,98723.19
2022-12-16T07:37:04.560Z,98733.91
2022-12-16T07:39:54.560Z,98733.13
2022-12-16T07:42:40.966Z,98739.78
2022-12-16T07:45:26.940Z,98755.50
2022-12-16T07:48:12.304Z,98760.88
2022-12-16T07:50:57.795Z,98765.94
2022-12-16T07:53:43.816Z,98758.97
2022-12-16T07:56:29.618Z,98768.44
2022-12-16T07:59:14.926Z,98760.13
2022-12-16T08:02:00.502Z,98760.13
2022-12-16T08:04:46.572Z,98777.53
2022-12-16T08:07:32.007Z,98787.53
2022-12-16T08:10:17.909Z,98776.81
2022-12-16T08:13:05.843Z,98777.28
2022-12-16T08:15:54.280Z,98777.09
2022-12-16T08:18:39.568Z,98775.31
2022-12-16T08:21:26.471Z,98768.97
2022-12-16T08:24:11.800Z,98777.28
2022-12-16T08:26:57.212Z,98793.78
2022-12-16T08:29:44.730Z,98807.78
2022-12-16T08:32:31.346Z,98805.34
2022-12-16T08:35:17.288Z,98811.75
2022-12-16T08:38:02.759Z,98808.03
2022-12-16T08:40:48.322Z,98817.66
2022-12-16T08:43:34.090Z,98830.84
2022-12-16T08:46:19.612Z,98833.94
2022-12-16T08:49:05.201Z,98842.97
2022-12-16T08:51:50.519Z,98834.38
2022-12-16T08:54:36.332Z,98823.50
2022-12-16T08:57:22.213Z,98838.28
2022-12-16T09:00:07.765Z,98831.38
2022-12-16T09:02:53.331Z,98848.44
2022-12-16T09:05:41.108Z,98848.09
2022-12-16T09:08:26.464Z,98836.75
2022-12-16T09:11:11.898Z,98854.91
2022-12-16T09:13:57.182Z,98863.47
2022-12-16T09:16:42.954Z,98850.41
2022-12-16T09:19:29.855Z,98836.06
2022-12-16T09:22:15.311Z,98838.84
2022-12-16T09:25:00.962Z,98847.28
2022-12-16T09:27:46.313Z,98858.50
2022-12-16T09:30:32.056Z,98868.34
2022-12-16T09:33:17.656Z,98878.69
2022-12-16T09:36:02.984Z,98881.81
2022-12-16T09:38:48.624Z,98895.94
2022-12-16T09:41:50.988Z,98898.25
2022-12-16T09:45:26.021Z,98898.06
2022-12-16T09:48:25.536Z,98904.69
2022-12-16T09:51:14.657Z,98914.69
2022-12-16T09:54:02.043Z,98913.13
2022-12-16T09:56:55.150Z,98914.53
2022-12-16T09:59:46.089Z,98906.31
2022-12-16T10:02:37.439Z,98921.03
2022-12-16T10:05:28.694Z,98907.44
2022-12-16T10:08:39.185Z,98905.53
2022-12-16T10:11:34.810Z,98904.59
2022-12-16T10:14:35.837Z,98911.25
2022-12-16T10:17:23.742Z,98908.69
2022-12-16T10:20:09.977Z,98904.56
2022-12-16T10:23:04.925Z,98893.97
2022-12-16T10:26:12.620Z,98893.47
2022-12-16T10:29:01.386Z,98904.16
2022-12-16T10:31:47.274Z,98907.16
2022-12-16T10:34:44.356Z,98910.88
2022-12-16T10:37:44.230Z,98904.16
2022-12-16T10:40:37.519Z,98903.25
2022-12-16T10:43:25.640Z,98887.72
2022-12-16T10:46:12.804Z,98891.81
2022-12-16T10:48:58.295Z,98902.88
2022-12-16T10:51:47.332Z,98904.03
2022-12-16T10:54:50.842Z,98908.16
2022-12-16T10:58:06.564Z,98931.97
2022-12-16T11:01:39.423Z,98937.44
2022-12-16T11:04:55.977Z,98943.81
2022-12-16T11:07:55.389Z,98938.34
2022-12-16T11:10:43.524Z,98936.28
2022-12-16T11:13:37.464Z,98946.38
2022-12-16T11:16:34.327Z,98955.69
2022-12-16T11:19:20.395Z,98949.22
2022-12-16T11:22:08.877Z,98942.84
2022-12-16T11:24:54.443Z,98947.97
2022-12-16T11:27:43.731Z,98929.56
2022-12-16T11:30:38.711Z,98940.44
2022-12-16T11:33:39.667Z,98955.81
2022-12-16T11:36:30.184Z,98950.91
2022-12-16T11:39:16.443Z,98952.97
2022-12-16T11:42:06.191Z,98945.81
2022-12-16T11:45:05.468Z,98946.09
2022-12-16T11:48:04.503Z,98953.06
2022-12-16T11:50:54.002Z,98958.88
2022-12-16T11:53:46.944Z,98975.19
2022-12-16T11:56:36.598Z,99003.00
2022-12-16T11:59:29.801Z,98998.97
2022-12-16T12:02:19.282Z,99006.00
2022-12-16T12:05:06.982Z,98998.19
2022-12-16T12:08:02.993Z,99001.59
2022-12-16T12:10:53.047Z,98997.38
2022-12-16T12:13:50.144Z,99002.47
2022-12-16T12:16:45.182Z,99018.72
2022-12-16T12:19:43.818Z,99012.81
2022-12-16T12:22:47.526Z,98995.88
2022-12-16T12:25:54.394Z,98996.06
2022-12-16T12:28:48.944Z,98986.34
2022-12-16T12:31:43.431Z,98992.81
2022-12-16T12:34:39.109Z,99007.97
2022-12-16T12:38:07.800Z,99010.81
2022-12-16T12:42:01.622Z,99014.56
2022-12-16T12:45:02.082Z,99017.31
2022-12-16T12:47:49.983Z,99025.00
2022-12-16T12:50:50.821Z,99023.22
2022-12-16T12:54:04.086Z,99008.56
2022-12-16T12:57:12.569Z,99028.50
2022-12-16T13:00:18.744Z,99028.50
2022-12-16T13:03:14.403Z,99025.63
2022-12-16T13:06:01.030Z,99019.06
2022-12-16T13:09:07.937Z,99021.78
2022-12-16T13:11:54.321Z,99033.63
2022-12-16T13:14:51.898Z,99023.06
2022-12-16T13:17:43.490Z,99031.19
2022-12-16T13:20:50.837Z,99043.38
2022-12-16T13:24:03.668Z,99058.44
2022-12-16T13:26:51.936Z,99083.19
2022-12-16T13:29:44.561Z,99094.06
2022-12-16T13:32:41.057Z,99099.00
2022-12-16T13:35:29.565Z,99087.47
2022-12-16T13:38:17.854Z,99092.50
2022-12-16T13:41:45.978Z,99090.91
2022-12-16T13:44:52.136Z,99103.09
2022-12-16T13:47:52.599Z,99101.53
2022-12-16T13:51:00.013Z,99103.75
2022-12-16T13:53:47.813Z,99107.00
2022-12-16T13:56:36.786Z,99122.00
2022-12-16T13:59:32.529Z,99129.69
2022-12-16T14:02:33.247Z,99156.56
2022-12-16T14:05:19.131Z,99173.22
2022-12-16T14:08:04.722Z,99165.56
2022-12-16T14:10:59.890Z,99156.41
2022-12-16T14:13:57.466Z,99160.38
2022-12-16T14:17:16.533Z,99174.94
2022-12-16T14:20:25.218Z,99172.09
2022-12-16T14:23:47.247Z,99164.56
2022-12-16T14:26:23.494Z,99166.81
2022-12-16T14:29:09.142Z,99169.09
2022-12-16T14:31:59.914Z,99155.47
2022-12-16T14:34:55.069Z,99150.97
2022-12-16T14:37:47.751Z,99153.88
2022-12-16T14:40:47.364Z,99163.94
2022-12-16T14:43:42.616Z,99169.38
2022-12-16T14:46:53.958Z,99178.22
2022-12-16T14:49:43.459Z,99202.50
2022-12-16T14:52:43.672Z,99217.88
2022-12-16T14:55:50.522Z,99216.13
2022-12-16T14:58:38.411Z,99224.78
2022-12-16T15:01:34.947Z,99218.38
2022-12-16T15:04:24.215Z,99213.88
2022-12-16T15:07:12.438Z,99210.06
2022-12-16T15:10:01.421Z,99203.31
2022-12-16T15:12:50.722Z,99210.06
2022-12-16T15:16:03.130Z,99222.84
2022-12-16T15:19:01.602Z,99215.97
2022-12-16T15:21:47.133Z,99219.66
2022-12-16T15:24:38.023Z,99221.25
2022-12-16T15:27:52.422Z,99232.28
2022-12-16T15:30:50.217Z,99228.28
2022-12-16T15:33:38.550Z,99239.00
2022-12-16T15:36:25.046Z,99232.28
2022-12-16T15:39:12.461Z,99246.22
2022-12-16T15:41:57.617Z,99251.84
2022-12-16T15:44:46.978Z,99251.34
2022-12-16T15:47:51.984Z,99243.50
2022-12-16T15:50:44.341Z,99260.13
2022-12-16T15:53:54.283Z,99251.19
2022-12-16T15:56:42.872Z,99255.78
2022-12-16T15:59:45.288Z,99261.91
2022-12-16T16:02:42.212Z,99255.97
2022-12-16T16:05:37.326Z,99261.75
2022-12-16T16:08:23.280Z,99264.44
2022-12-16T16:11:08.590Z,99254.84
2022-12-16T16:13:54.610Z,99266.53
2022-12-16T16:16:42.246Z,99255.47
2022-12-16T16:19:40.781Z,99264.78
2022-12-16T16:22:35.744Z,99269.91
2022-12-16T16:25:21.721Z,99273.44
2022-12-16T16:28:07.455Z,99277.59
2022-12-16T16:30:52.956Z,99284.31
2022-12-16T16:33:38.471Z,99287.34
2022-12-16T16:36:33.951Z,99293.63
2022-12-16T16:39:20.278Z,99288.78
2022-12-16T16:42:05.777Z,99299.34
2022-12-16T16:44:50.877Z,99299.34
2022-12-16T16:47:36.689Z,99306.88
2022-12-16T16:50:21.988Z,99304.16
2022-12-16T16:53:07.173Z,99296.63
2022-12-16T16:55:52.593Z,99289.13
2022-12-16T16:58:50.595Z,99292.16
2022-12-16T17:01:37.285Z,99281.44
2022-12-16T17:04:23.324Z,99283.22
2022-12-16T17:07:08.884Z,99289.13
2022-12-16T17:09:54.121Z,99287.03
2022-12-16T17:12:47.553Z,99287.69
2022-12-16T17:15:36.179Z,99295.19
2022-12-16T17:18:22.488Z,99295.84
2022-12-16T17:21:07.885Z,99302.56
2022-12-16T17:23:56.582Z,99301.91
2022-12-16T17:26:42.502Z,99308.63
2022-12-16T17:29:42.759Z,99321.28
2022-12-16T17:32:28.926Z,99323.41
2022-12-16T17:35:14.427Z,99324.00
2022-12-16T17:37:59.980Z,99326.59
2022-12-16T17:40:45.766Z,99328.69
2022-12-16T17:43:31.299Z,99325.63
2022-12-16T17:46:18.219Z,99333.63
2022-12-16T17:49:09.584Z,99345.00
2022-12-16T17:51:54.721Z,99338.75
2022-12-16T17:54:42.568Z,99341.16
2022-12-16T17:57:27.845Z,99345.28
2022-12-16T18:00:12.957Z,99343.84
2022-12-16T18:02:59.959Z,99363.69
2022-12-16T18:05:45.999Z,99357.94
2022-12-16T18:08:31.642Z,99381.97
2022-12-16T18:11:17.331Z,99382.31
2022-12-16T18:14:03.066Z,99385.81
2022-12-16T18:16:49.811Z,99386.44
2022-12-16T18:19:35.950Z,99395.38
2022-12-16T18:22:21.292Z,99389.78
2022-12-16T18:25:06.844Z,99391.75
2022-12-16T18:27:54.676Z,99383.84
2022-12-16T18:30:42.895Z,99389.63
2022-12-16T18:33:28.551Z,99384.13
2022-12-16T18:36:13.936Z,99381.91
2022-12-16T18:38:59.555Z,99382.09
2022-12-16T18:41:45.438Z,99377.47
2022-12-16T18:44:32.608Z,99384.00
2022-12-16T18:47:18.581Z,99380.03
2022-12-16T18:50:04.161Z,99387.22
2022-12-16T18:52:49.905Z,99372.34
2022-12-16T18:55:35.259Z,99390.72
2022-12-16T18:58:49.814Z,99391.34
2022-12-16T19:01:28.759Z,99404.88
2022-12-16T19:04:15.849Z,99418.34
2022-12-16T19:07:02.412Z,99413.31
2022-12-16T19:09:47.897Z,99423.41
2022-12-16T19:12:33.119Z,99424.81
2022-12-16T19:15:18.680Z,99427.97
2022-12-16T19:18:03.893Z,99417.22
2022-12-16T19:20:49.173Z,99432.56
2022-12-16T19:23:34.673Z,99431.75
2022-12-16T19:26:21.080Z,99433.91
2022-12-16T19:29:14.384Z,99438.72
2022-12-16T19:31:59.697Z,99453.41
2022-12-16T19:34:45.032Z,99449.91
2022-12-16T19:37:30.631Z,99462.75
2022-12-16T19:40:16.194Z,99455.72
2022-12-16T19:43:01.776Z,99462.75
2022-12-16T19:45:47.444Z,99462.28
2022-12-16T19:48:33.003Z,99465.13
2022-12-16T19:51:20.473Z,99466.41
2022-12-16T19:54:06.349Z,99459.03
2022-12-16T19:56:52.766Z,99472.78
2022-12-16T19:59:41.073Z,99469.03
2022-12-16T20:02:28.964Z,99468.63
2022-12-16T20:05:14.446Z,99469.34
2022-12-16T20:07:59.687Z,99458.97
2022-12-16T20:10:45.237Z,99460.50
2022-12-16T20:13:32.235Z,99470.72
2022-12-16T20:16:28.404Z,99468.84
2022-12-16T20:19:18.929Z,99468.31
2022-12-16T20:22:06.884Z,99490.69
2022-12-16T20:24:56.312Z,99503.31
2022-12-16T20:27:42.406Z,99504.84
2022-12-16T20:30:28.854Z,99501.88
2022-12-16T20:33:14.440Z,99522.72
2022-12-16T20:35:59.589Z,99523.06
2022-12-16T20:38:44.957Z,99525.88
2022-12-16T20:41:30.133Z,99526.97
2022-12-16T20:44:15.447Z,99524.84
2022-12-16T20:47:00.829Z,99530.09
2022-12-16T20:49:46.008Z,99527.84
2022-12-16T20:52:31.381Z,99536.75
2022-12-16T20:55:16.953Z,99536.47
2022-12-16T20:58:02.354Z,99544.34
2022-12-16T21:00:47.508Z,99541.53
2022-12-16T21:03:32.854Z,99542.00
2022-12-16T21:06:18.424Z,99541.13
2022-12-16T21:09:04.012Z,99542.00
2022-12-16T21:11:49.334Z,99544.81
2022-12-16T21:14:34.797Z,99539.78
2022-12-16T21:17:20.096Z,99540.59
2022-12-16T21:20:06.262Z,99548.63
2022-12-16T21:22:51.668Z,99557.75
2022-12-16T21:25:38.504Z,99569.88
2022-12-16T21:28:24.056Z,99572.59
2022-12-16T21:31:09.374Z,99593.78
2022-12-16T21:33:55.470Z,99593.22
2022-12-16T21:36:41.063Z,99603.00
2022-12-16T21:39:26.184Z,99607.97
2022-12-16T21:42:11.480Z,99605.47
2022-12-16T21:44:56.804Z,99604.28
2022-12-16T21:47:42.402Z,99605.75
2022-12-16T21:50:28.326Z,99603.44
2022-12-16T21:53:13.647Z,99608.53
2022-12-16T21:55:59.094Z,99601.81
2022-12-16T21:58:44.412Z,99604.84
2022-12-16T22:01:29.736Z,99600.78
2022-12-16T22:04:15.197Z,99603.28
2022-12-16T22:07:00.375Z,99608.22
2022-12-16T22:09:45.748Z,99606.78
2022-12-16T22:12:31.118Z,99598.47
2022-12-16T22:15:16.411Z,99604.84
2022-12-16T22:18:01.869Z,99615.25
2022-12-16T22:20:47.312Z,99617.00
2022-12-16T22:23:32.891Z,99618.91
2022-12-16T22:26:19.524Z,99624.91
2022-12-16T22:29:05.540Z,99623.66
2022-12-16T22:31:50.768Z,99630.75
2022-12-16T22:34:37.103Z,99632.97
2022-12-16T22:37:22.796Z,99630.16
2022-12-16T22:40:08.255Z,99630.38
2022-12-16T22:42:53.300Z,99622.41
2022-12-16T22:45:40.773Z,99630.22
2022-12-16T22:48:26.083Z,99638.47
2022-12-16T22:51:11.642Z,99639.91
2022-12-16T22:53:57.134Z,99647.13
2022-12-16T22:56:42.323Z,99651.94
2022-12-16T22:59:27.746Z,99650.63
2022-12-16T23:02:13.090Z,99658.81
2022-12-16T23:05:00.423Z,99652.44
2022-12-16T23:07:45.614Z,99659.03
2022-12-16T23:10:31.063Z,99644.41
2022-12-16T23:13:16.320Z,99645.84
2022-12-16T23:16:01.774Z,99661.47
2022-12-16T23:18:47.500Z,99665.00
2022-12-16T23:21:37.044Z,99665.84
2022-12-16T23:24:22.818Z,99664.66
2022-12-16T23:27:08.066Z,99655.44
2022-12-16T23:29:53.448Z,99658.69
2022-12-16T23:32:42.846Z,99663.50
2022-12-16T23:35:28.203Z,99671.34
2022-12-16T23:38:24.127Z,99675.34
2022-12-16T23:41:16.858Z,99676.72
2022-12-16T23:44:03.254Z,99665.56
2022-12-16T23:46:48.749Z,99665.44
2022-12-16T23:49:34.029Z,99668.53
2022-12-16T23:52:19.127Z,99671.47
2022-12-16T23:55:04.369Z,99662.63
2022-12-16T23:57:49.646Z,99670.66
